Time;durP1;ratioP1;P1;durP2;ratioP2;P2;SDS_P1;SDS_P2;PMS_P1;PMS_P2;Temp;Humidity;BMP_temperature;BMP_pressure;BME280_temperature;BME280_humidity;BME280_pressure;Samples;Min_cycle;Max_cycle;Signal;HPM_P1;HPM_P2
2022/07/01 00:01:44;;;;;;;4.90;2.20;;;14.00;99.90;;;;;;5074825;28;20546;-27
2022/07/01 00:04:10;;;;;;;5.90;2.10;;;14.20;99.90;;;;;;5077130;28;20052;-27
2022/07/01 00:06:37;;;;;;;7.45;2.58;;;14.20;99.90;;;;;;5075570;28;20041;-27
2022/07/01 00:09:04;;;;;;;3.70;1.88;;;14.20;99.90;;;;;;5076093;28;20056;-27
2022/07/01 00:11:31;;;;;;;6.30;2.38;;;14.20;99.90;;;;;;5076270;28;20044;-28
2022/07/01 00:13:57;;;;;;;8.60;2.30;;;14.20;99.90;;;;;;5076091;28;20482;-27
2022/07/01 00:16:22;;;;;;;5.22;2.10;;;14.30;99.90;;;;;;5075333;28;20052;-28
2022/07/01 00:18:48;;;;;;;6.90;2.22;;;14.30;99.90;;;;;;5076049;28;20115;-27
2022/07/01 00:21:16;;;;;;;6.05;2.80;;;14.30;99.90;;;;;;5076504;28;20047;-27
2022/07/01 00:23:44;;;;;;;7.72;1.83;;;14.30;99.90;;;;;;5075093;28;20067;-27
2022/07/01 00:26:10;;;;;;;7.32;2.30;;;14.30;99.90;;;;;;5074974;28;20083;-27
2022/07/01 00:28:36;;;;;;;4.25;1.65;;;14.30;99.90;;;;;;5076439;28;20079;-26
2022/07/01 00:31:02;;;;;;;8.18;2.10;;;14.30;99.90;;;;;;5075844;28;20041;-27
2022/07/01 00:33:30;;;;;;;7.70;2.20;;;14.30;99.90;;;;;;5074606;28;20044;-27
2022/07/01 00:35:56;;;;;;;5.95;1.88;;;14.30;99.90;;;;;;5074772;28;20098;-26
2022/07/01 00:38:22;;;;;;;7.93;2.70;;;14.30;99.90;;;;;;5075745;28;20052;-26
2022/07/01 00:40:54;;;;;;;7.63;1.85;;;14.30;99.90;;;;;;5075229;28;20051;-27
2022/07/01 00:43:24;;;;;;;4.20;2.08;;;14.30;99.90;;;;;;5075674;28;20044;-28
2022/07/01 00:45:50;;;;;;;5.30;1.88;;;14.40;99.90;;;;;;5074324;28;20395;-26
2022/07/01 00:48:17;;;;;;;3.97;1.98;;;14.30;99.90;;;;;;5074346;28;20044;-26
2022/07/01 00:50:43;;;;;;;5.35;1.95;;;14.30;99.90;;;;;;5074240;28;20379;-27
2022/07/01 00:53:09;;;;;;;3.60;1.27;;;14.40;99.90;;;;;;5075415;28;20045;-26
2022/07/01 00:55:35;;;;;;;2.75;1.23;;;14.40;99.90;;;;;;5074517;28;20044;-27
2022/07/01 00:58:01;;;;;;;6.38;1.52;;;14.40;99.90;;;;;;5075280;28;20045;-28
2022/07/01 01:00:26;;;;;;;6.50;1.58;;;14.40;99.90;;;;;;5075267;28;20144;-27
2022/07/01 01:02:52;;;;;;;6.18;2.20;;;14.40;99.90;;;;;;5075197;28;20079;-27
2022/07/01 01:05:20;;;;;;;3.80;1.60;;;14.40;99.90;;;;;;5075163;28;20044;-27
2022/07/01 01:07:46;;;;;;;4.75;1.60;;;14.40;99.90;;;;;;5075125;28;20131;-28
2022/07/01 01:10:13;;;;;;;5.82;1.50;;;14.40;99.90;;;;;;5074868;28;20513;-27
2022/07/01 01:12:39;;;;;;;5.15;2.13;;;14.50;99.90;;;;;;5074979;28;20516;-27
2022/07/01 01:15:05;;;;;;;4.22;2.50;;;14.50;99.90;;;;;;5073698;28;20128;-27
2022/07/01 01:17:31;;;;;;;2.95;2.40;;;14.40;99.90;;;;;;5057233;28;20063;-28
2022/07/01 01:19:56;;;;;;;6.85;3.13;;;14.50;99.90;;;;;;5057328;28;20401;-27
2022/07/01 01:22:22;;;;;;;4.25;2.88;;;14.40;99.90;;;;;;5073571;28;20045;-26
2022/07/01 01:24:48;;;;;;;7.43;3.08;;;14.40;99.90;;;;;;5073775;28;20044;-28
2022/07/01 01:27:16;;;;;;;5.53;2.65;;;14.40;99.90;;;;;;5074697;28;20052;-27
2022/07/01 01:29:43;;;;;;;2.85;2.65;;;14.40;99.90;;;;;;5074597;28;20127;-28
2022/07/01 01:32:09;;;;;;;5.40;3.83;;;14.30;99.90;;;;;;5074568;28;20036;-27
2022/07/01 01:34:37;;;;;;;5.03;3.70;;;14.30;99.90;;;;;;5074543;28;20048;-27
2022/07/01 01:37:07;;;;;;;5.13;3.13;;;14.30;99.90;;;;;;5074508;28;20053;-27
2022/07/01 01:39:33;;;;;;;6.18;3.40;;;14.30;99.90;;;;;;5074485;28;20049;-28
2022/07/01 01:42:00;;;;;;;6.45;3.35;;;14.20;99.90;;;;;;5074384;28;20052;-27
2022/07/01 01:44:26;;;;;;;5.15;3.33;;;14.20;99.90;;;;;;5073413;28;20052;-27
2022/07/01 01:46:52;;;;;;;4.25;3.72;;;14.10;99.90;;;;;;5073084;28;20500;-27
2022/07/01 01:49:17;;;;;;;3.25;2.80;;;14.10;99.90;;;;;;5073302;28;20131;-27
2022/07/01 01:51:43;;;;;;;5.63;3.88;;;14.10;99.90;;;;;;5074232;28;20079;-27
2022/07/01 01:54:09;;;;;;;6.57;4.07;;;14.10;99.90;;;;;;5074193;28;20368;-27
2022/07/01 01:56:34;;;;;;;5.82;3.80;;;14.10;99.90;;;;;;5074702;28;20037;-27
2022/07/01 01:59:00;;;;;;;4.20;3.22;;;14.10;99.90;;;;;;5074912;28;20048;-27
2022/07/01 02:01:26;;;;;;;5.05;3.25;;;14.10;99.90;;;;;;5074533;28;20482;-27
2022/07/01 02:03:53;;;;;;;8.38;4.35;;;14.20;99.90;;;;;;5074568;28;20118;-27
2022/07/01 02:06:20;;;;;;;5.82;3.78;;;14.10;99.90;;;;;;5073903;28;20093;-26
2022/07/01 02:08:46;;;;;;;5.75;3.22;;;14.10;99.90;;;;;;5073087;28;20049;-27
2022/07/01 02:11:12;;;;;;;3.42;2.80;;;14.20;99.90;;;;;;5073333;28;20052;-28
2022/07/01 02:13:39;;;;;;;4.40;3.20;;;14.20;99.90;;;;;;5073926;28;20040;-27
2022/07/01 02:16:05;;;;;;;8.80;4.05;;;14.20;99.90;;;;;;5074103;28;20048;-27
2022/07/01 02:18:32;;;;;;;10.57;3.42;;;14.20;99.90;;;;;;5072437;28;20052;-27
2022/07/01 02:20:58;;;;;;;4.15;2.90;;;14.20;99.90;;;;;;5072589;28;20474;-27
2022/07/01 02:23:25;;;;;;;2.50;1.95;;;14.20;99.90;;;;;;5073850;28;20048;-26
2022/07/01 02:25:51;;;;;;;4.38;3.22;;;14.20;99.90;;;;;;5073863;28;20044;-27
2022/07/01 02:28:17;;;;;;;6.75;3.60;;;14.20;99.90;;;;;;5073780;28;20323;-28
2022/07/01 02:30:42;;;;;;;4.95;3.40;;;14.30;99.90;;;;;;5074295;28;20497;-27
2022/07/01 02:33:09;;;;;;;4.57;3.45;;;14.30;99.90;;;;;;5072535;28;20079;-27
2022/07/01 02:35:38;;;;;;;6.93;2.60;;;14.20;99.90;;;;;;5073615;28;20398;-27
2022/07/01 02:38:05;;;;;;;4.90;2.60;;;14.20;99.90;;;;;;5073647;28;20132;-27
2022/07/01 02:40:32;;;;;;;6.68;2.72;;;14.10;99.90;;;;;;5073780;28;20048;-27
2022/07/01 02:42:58;;;;;;;4.50;2.75;;;14.10;99.90;;;;;;5073555;28;20131;-27
2022/07/01 02:45:26;;;;;;;6.45;3.75;;;14.10;99.90;;;;;;5073580;28;20076;-27
2022/07/01 02:47:52;;;;;;;4.13;2.58;;;14.00;99.90;;;;;;5073528;28;20037;-27
2022/07/01 02:50:19;;;;;;;5.90;2.75;;;13.90;99.90;;;;;;5072578;28;20051;-27
2022/07/01 02:52:45;;;;;;;4.47;3.30;;;14.00;99.90;;;;;;5073508;28;20037;-27
2022/07/01 02:55:13;;;;;;;7.00;3.63;;;13.90;99.90;;;;;;5074037;28;20097;-28
2022/07/01 02:57:40;;;;;;;11.63;3.80;;;13.90;99.90;;;;;;5073420;28;20041;-27
2022/07/01 03:00:08;;;;;;;4.63;3.25;;;13.90;99.90;;;;;;5073470;28;20487;-27
2022/07/01 03:02:34;;;;;;;6.22;4.35;;;13.80;99.90;;;;;;5073313;28;20044;-29
2022/07/01 03:05:00;;;;;;;5.47;3.50;;;13.80;99.90;;;;;;5073388;28;20049;-27
2022/07/01 03:07:25;;;;;;;10.13;4.63;;;13.80;99.90;;;;;;5074186;28;20048;-27
2022/07/01 03:09:52;;;;;;;7.15;4.25;;;13.80;99.90;;;;;;5073094;28;20542;-27
2022/07/01 03:12:34;;;;;;;7.88;4.30;;;13.80;99.90;;;;;;5073300;28;20087;-28
2022/07/01 03:15:29;;;;;;;4.95;4.25;;;13.80;99.90;;;;;;5073210;28;20056;-27
2022/07/01 03:17:55;;;;;;;6.63;4.97;;;13.80;99.90;;;;;;5072609;28;20139;-27
2022/07/01 03:20:20;;;;;;;8.07;4.95;;;13.80;99.90;;;;;;5077468;28;20087;-27
2022/07/01 03:22:47;;;;;;;8.07;5.05;;;13.80;99.90;;;;;;5077032;28;20390;-27
2022/07/01 03:25:13;;;;;;;8.88;5.50;;;13.80;99.90;;;;;;5077907;28;20127;-28
2022/07/01 03:27:44;;;;;;;7.78;5.15;;;13.80;99.90;;;;;;5077026;28;20514;-27
2022/07/01 03:30:11;;;;;;;4.90;3.78;;;13.70;99.90;;;;;;5077050;28;20044;-27
2022/07/01 03:32:37;;;;;;;6.35;4.50;;;13.70;99.90;;;;;;5076919;28;20052;-27
2022/07/01 03:35:35;;;;;;;6.65;4.38;;;13.70;99.90;;;;;;5076580;28;20059;-27
2022/07/01 03:37:50;;;;;;;6.57;4.47;;;13.70;99.90;;;;;;5077652;28;20048;-27
2022/07/01 03:40:16;;;;;;;5.55;3.72;;;13.70;99.90;;;;;;5076758;28;20052;-26
2022/07/01 03:42:41;;;;;;;8.30;4.95;;;13.70;99.90;;;;;;5076932;28;20041;-27
2022/07/01 03:45:07;;;;;;;6.82;4.90;;;13.70;99.90;;;;;;5076667;28;20486;-27
2022/07/01 03:47:33;;;;;;;7.47;6.20;;;13.70;99.90;;;;;;5076685;28;20123;-28
2022/07/01 03:49:59;;;;;;;7.00;5.70;;;13.70;99.90;;;;;;5076550;28;20106;-27
2022/07/01 03:52:25;;;;;;;9.35;5.22;;;13.70;99.90;;;;;;5042978;28;20046;-27
2022/07/01 03:54:50;;;;;;;7.88;4.88;;;13.70;99.90;;;;;;5058723;28;20048;-27
2022/07/01 03:57:16;;;;;;;8.23;5.00;;;13.70;99.90;;;;;;5076751;28;20498;-26
2022/07/01 03:59:42;;;;;;;6.95;5.05;;;13.80;99.90;;;;;;5076438;28;20466;-27
2022/07/01 04:02:07;;;;;;;8.82;5.75;;;13.80;99.90;;;;;;5076342;28;20067;-27
2022/07/01 04:04:34;;;;;;;6.47;5.22;;;13.90;99.90;;;;;;5075938;28;20036;-26
2022/07/01 04:07:02;;;;;;;6.38;4.35;;;13.90;99.90;;;;;;5076317;28;20049;-27
2022/07/01 04:09:30;;;;;;;8.98;5.43;;;13.90;99.90;;;;;;5076163;28;20096;-26
2022/07/01 04:11:57;;;;;;;6.78;5.07;;;13.90;99.90;;;;;;5076592;28;20475;-26
2022/07/01 04:14:24;;;;;;;7.03;5.97;;;14.00;99.90;;;;;;5075239;28;20129;-27
2022/07/01 04:16:51;;;;;;;8.98;5.53;;;14.00;99.90;;;;;;5076065;28;20123;-27
2022/07/01 04:19:17;;;;;;;8.07;5.72;;;14.00;99.90;;;;;;5075106;28;20048;-26
2022/07/01 04:24:28;;;;;;;8.35;5.38;;;14.00;99.90;;;;;;5076604;28;20063;-26
2022/07/01 04:26:54;;;;;;;9.77;6.18;;;14.00;99.90;;;;;;5075981;28;20048;-27
2022/07/01 04:29:20;;;;;;;10.50;5.65;;;14.00;99.90;;;;;;5074999;28;20110;-26
2022/07/01 04:31:46;;;;;;;11.40;8.02;;;14.10;99.90;;;;;;5076071;28;20524;-26
2022/07/01 04:34:12;;;;;;;10.13;6.80;;;14.10;99.90;;;;;;5075119;28;20052;-26
2022/07/01 04:36:38;;;;;;;11.75;5.63;;;14.10;99.90;;;;;;5076295;28;20492;-26
2022/07/01 04:39:05;;;;;;;9.70;7.10;;;14.10;99.90;;;;;;5075731;28;20106;-26
2022/07/01 04:44:16;;;;;;;11.98;6.40;;;14.10;99.90;;;;;;5075965;28;20071;-26
2022/07/01 04:46:42;;;;;;;10.75;5.40;;;14.10;99.90;;;;;;5075553;28;20054;-26
2022/07/01 04:49:08;;;;;;;12.93;6.07;;;14.00;99.90;;;;;;5058242;28;20130;-26
2022/07/01 04:51:34;;;;;;;11.25;5.70;;;14.10;99.90;;;;;;5075516;28;20036;-27
2022/07/01 04:54:05;;;;;;;9.90;6.03;;;14.00;99.90;;;;;;5075404;28;20088;-26
2022/07/01 04:56:33;;;;;;;14.65;7.32;;;14.10;99.90;;;;;;5074954;28;20398;-26
2022/07/01 04:58:59;;;;;;;11.45;7.30;;;14.10;99.90;;;;;;5075858;28;20087;-27
2022/07/01 05:01:25;;;;;;;11.63;6.50;;;14.10;99.90;;;;;;5074428;28;20040;-26
2022/07/01 05:03:51;;;;;;;10.93;6.75;;;14.10;99.90;;;;;;5075706;28;20051;-26
2022/07/01 05:06:17;;;;;;;9.45;7.05;;;14.10;99.90;;;;;;5074805;28;20141;-26
2022/07/01 05:08:43;;;;;;;11.20;8.07;;;14.10;99.90;;;;;;5073907;28;20045;-26
2022/07/01 05:11:09;;;;;;;7.57;5.70;;;14.10;99.90;;;;;;5057403;28;20055;-26
2022/07/01 05:13:34;;;;;;;14.52;7.93;;;14.20;99.90;;;;;;5075578;28;20443;-26
2022/07/01 05:16:01;;;;;;;9.25;6.40;;;14.20;99.90;;;;;;5073366;28;20146;-26
2022/07/01 05:23:54;;;;;;;13.80;7.82;;;14.20;99.90;;;;;;5073883;28;20059;-26
2022/07/01 05:26:20;;;;;;;10.13;7.00;;;14.20;99.90;;;;;;5074775;28;20044;-26
2022/07/01 05:28:46;;;;;;;9.77;7.22;;;14.20;99.90;;;;;;5075510;28;20094;-26
2022/07/01 05:31:13;;;;;;;8.85;6.20;;;14.30;99.90;;;;;;5074689;28;20553;-25
2022/07/01 05:33:39;;;;;;;12.73;8.93;;;14.30;99.90;;;;;;5074610;28;20041;-26
2022/07/01 05:36:05;;;;;;;13.38;9.65;;;14.30;99.90;;;;;;5074806;28;20514;-25
2022/07/01 05:38:30;;;;;;;14.07;9.30;;;14.40;99.90;;;;;;5074485;28;20098;-26
2022/07/01 05:40:56;;;;;;;13.80;9.15;;;14.40;99.90;;;;;;5073740;28;20044;-25
2022/07/01 05:43:22;;;;;;;11.30;9.13;;;14.50;99.90;;;;;;5074506;28;20052;-25
2022/07/01 05:45:47;;;;;;;17.92;12.25;;;14.50;99.90;;;;;;5073240;28;20040;-26
2022/07/01 05:48:13;;;;;;;21.15;13.32;;;14.50;99.90;;;;;;5074373;28;20040;-26
2022/07/01 05:50:46;;;;;;;17.27;11.63;;;14.60;99.90;;;;;;5074271;28;20044;-26
2022/07/01 05:53:13;;;;;;;16.98;11.90;;;14.70;99.90;;;;;;5074377;28;20097;-26
2022/07/01 05:55:39;;;;;;;24.60;15.88;;;14.70;99.90;;;;;;5056940;28;20151;-26
2022/07/01 05:58:06;;;;;;;19.30;11.73;;;14.80;99.90;;;;;;5075025;28;20083;-26
2022/07/01 06:00:32;;;;;;;26.42;14.75;;;14.80;99.90;;;;;;5074765;28;20059;-25
2022/07/01 06:02:57;;;;;;;23.23;14.55;;;14.90;99.90;;;;;;5074069;28;20056;-25
2022/07/01 06:05:23;;;;;;;18.05;12.30;;;14.90;99.90;;;;;;5074061;28;20052;-26
2022/07/01 06:07:49;;;;;;;14.60;11.98;;;15.00;96.30;;;;;;5073407;28;20127;-26
2022/07/01 06:10:14;;;;;;;23.88;15.07;;;15.10;63.10;;;;;;5073089;28;20052;-26
2022/07/01 06:12:41;;;;;;;23.02;14.95;;;15.10;73.70;;;;;;5073965;28;20123;-26
2022/07/01 06:15:08;;;;;;;19.35;13.65;;;15.20;68.60;;;;;;5073820;28;20044;-25
2022/07/01 06:17:35;;;;;;;18.73;12.88;;;15.30;29.70;;;;;;5074434;28;20045;-25
2022/07/01 06:20:02;;;;;;;16.65;12.27;;;15.40;1.00;;;;;;5073902;28;20128;-25
2022/07/01 06:22:27;;;;;;;14.75;11.57;;;15.50;1.00;;;;;;5073747;28;20040;-26
2022/07/01 06:24:53;;;;;;;22.77;14.52;;;15.60;1.00;;;;;;5073796;28;20047;-25
2022/07/01 06:27:19;;;;;;;18.52;12.88;;;15.70;1.00;;;;;;5074352;28;20049;-25
2022/07/01 06:29:45;;;;;;;20.27;14.00;;;15.80;1.00;;;;;;5073728;28;20474;-25
2022/07/01 06:32:11;;;;;;;21.67;12.70;;;15.80;99.90;;;;;;5073779;28;20056;-25
2022/07/01 06:34:39;;;;;;;19.08;14.93;;;15.80;99.90;;;;;;5073720;28;20136;-25
2022/07/01 06:37:04;;;;;;;19.85;13.63;;;15.90;99.90;;;;;;5074185;28;20048;-25
2022/07/01 06:39:30;;;;;;;18.65;13.27;;;16.00;99.90;;;;;;5073676;28;20055;-25
2022/07/01 06:41:56;;;;;;;22.70;14.27;;;16.20;99.90;;;;;;5073556;28;20367;-25
2022/07/01 06:44:22;;;;;;;24.33;15.50;;;16.20;99.90;;;;;;5073625;28;20051;-25
2022/07/01 06:46:48;;;;;;;17.88;13.15;;;16.30;99.90;;;;;;5073554;28;20117;-25
2022/07/01 06:49:14;;;;;;;22.38;14.30;;;16.30;99.90;;;;;;5073568;28;20052;-25
2022/07/01 06:51:40;;;;;;;19.63;14.00;;;16.30;99.90;;;;;;5073550;28;20044;-24
2022/07/01 06:54:06;;;;;;;19.88;14.38;;;16.20;99.90;;;;;;5076138;28;20043;-24
2022/07/01 06:56:31;;;;;;;19.70;15.10;;;16.20;99.90;;;;;;5077636;28;20049;-24
2022/07/01 06:58:57;;;;;;;18.90;14.73;;;16.10;99.90;;;;;;5078154;28;20121;-24
2022/07/01 07:01:25;;;;;;;20.83;15.30;;;16.20;99.90;;;;;;5078094;28;20383;-25
2022/07/01 07:03:51;;;;;;;18.38;13.77;;;16.20;99.90;;;;;;5076837;28;20049;-24
2022/07/01 07:06:16;;;;;;;20.08;14.55;;;16.20;23.00;;;;;;5076489;28;20102;-24
2022/07/01 07:08:42;;;;;;;22.42;15.38;;;16.10;71.70;;;;;;5077381;28;20052;-24
2022/07/01 07:11:08;;;;;;;18.88;14.07;;;16.20;99.90;;;;;;5078504;28;20052;-24
2022/07/01 07:13:35;;;;;;;23.60;17.05;;;16.20;99.90;;;;;;5078124;28;20087;-24
2022/07/01 07:16:01;;;;;;;22.33;17.10;;;16.20;99.90;;;;;;5077179;28;20048;-24
2022/07/01 07:18:27;;;;;;;19.80;16.10;;;16.20;99.90;;;;;;5077226;28;20059;-24
2022/07/01 07:20:53;;;;;;;22.98;15.68;;;16.20;60.70;;;;;;5077091;28;20166;-24
2022/07/01 07:23:18;;;;;;;26.30;17.10;;;16.20;47.50;;;;;;5077137;28;20040;-24
2022/07/01 07:25:44;;;;;;;21.08;15.73;;;16.30;99.90;;;;;;5077068;28;20049;-24
2022/07/01 07:28:10;;;;;;;21.85;14.88;;;16.30;29.90;;;;;;5059526;28;20047;-24
2022/07/01 07:30:36;;;;;;;22.73;13.00;;;16.30;1.00;;;;;;5075795;28;20040;-24
2022/07/01 07:33:01;;;;;;;18.95;14.85;;;16.40;9.00;;;;;;5077491;28;20080;-24
2022/07/01 07:35:27;;;;;;;19.75;13.55;;;16.50;84.70;;;;;;5076912;28;20051;-24
2022/07/01 07:37:53;;;;;;;22.10;17.35;;;16.50;1.00;;;;;;5076875;28;20057;-24
2022/07/01 07:40:18;;;;;;;24.40;15.88;;;16.50;1.00;;;;;;5077100;28;20087;-24
2022/07/01 07:42:46;;;;;;;21.17;15.93;;;16.60;1.00;;;;;;5076728;28;20558;-24
2022/07/01 07:45:13;;;;;;;19.83;13.40;;;16.80;6.80;;;;;;5076729;28;20051;-24
2022/07/01 07:47:45;;;;;;;19.40;13.73;;;16.60;99.90;;;;;;5076695;28;20045;-24
2022/07/01 07:50:12;;;;;;;26.63;16.30;;;16.60;99.90;;;;;;5077256;28;20055;-24
2022/07/01 07:52:39;;;;;;;19.60;13.88;;;16.70;1.00;;;;;;5076574;28;20036;-24
2022/07/01 07:55:06;;;;;;;20.38;14.20;;;16.80;1.00;;;;;;5076517;28;20071;-24
2022/07/01 07:57:32;;;;;;;17.77;12.32;;;16.90;1.00;;;;;;5076491;28;20048;-24
2022/07/01 07:59:58;;;;;;;18.67;13.63;;;16.90;1.00;;;;;;5077303;28;20051;-24
2022/07/01 08:02:23;;;;;;;14.63;11.95;;;17.00;1.00;;;;;;5077191;28;20032;-24
2022/07/01 08:04:49;;;;;;;19.38;13.80;;;17.10;99.90;;;;;;5076070;28;20494;-24
2022/07/01 08:07:15;;;;;;;17.67;13.60;;;17.40;99.90;;;;;;5076640;28;20083;-24
2022/07/01 08:09:45;;;;;;;23.00;13.02;;;17.60;99.90;;;;;;5076708;28;20382;-24
2022/07/01 08:12:12;;;;;;;18.63;14.27;;;17.70;99.90;;;;;;5076284;28;20049;-24
2022/07/01 08:14:37;;;;;;;19.27;14.27;;;17.70;93.20;;;;;;5076190;28;20048;-24
2022/07/01 08:17:04;;;;;;;17.10;12.85;;;18.00;94.40;;;;;;5076073;28;20375;-25
2022/07/01 08:19:29;;;;;;;16.55;11.20;;;18.50;1.00;;;;;;5075187;28;20080;-24
2022/07/01 08:21:55;;;;;;;15.50;11.70;;;19.00;1.00;;;;;;5075992;28;20087;-24
2022/07/01 08:24:21;;;;;;;13.77;7.43;;;19.10;99.90;;;;;;5076009;28;20136;-24
2022/07/01 08:26:47;;;;;;;12.02;8.25;;;18.60;1.00;;;;;;5076498;28;20088;-24
2022/07/01 08:29:13;;;;;;;12.18;8.40;;;18.30;1.00;;;;;;5075957;28;20084;-24
2022/07/01 08:31:39;;;;;;;12.13;8.68;;;18.30;99.90;;;;;;5076697;28;20370;-24
2022/07/01 08:34:05;;;;;;;15.75;10.23;;;18.10;1.00;;;;;;5075829;28;20098;-24
2022/07/01 08:36:30;;;;;;;11.73;7.88;;;18.40;1.00;;;;;;5075783;28;20119;-24
2022/07/01 08:38:56;;;;;;;9.07;7.00;;;18.70;1.00;;;;;;5074536;28;20044;-24
2022/07/01 08:41:22;;;;;;;12.70;7.40;;;19.30;1.00;;;;;;5076197;28;20041;-24
2022/07/01 08:43:47;;;;;;;16.75;7.30;;;19.70;99.90;;;;;;5074657;28;20048;-25
2022/07/01 08:46:13;;;;;;;15.48;7.03;;;20.20;99.90;;;;;;5075642;28;20040;-25
2022/07/01 08:48:45;;;;;;;8.35;5.32;;;20.10;1.00;;;;;;5074337;28;20101;-25
2022/07/01 08:51:11;;;;;;;8.07;4.80;;;19.70;99.90;;;;;;5075210;28;20486;-25
2022/07/01 08:53:38;;;;;;;12.15;5.72;;;20.10;1.00;;;;;;5075427;28;20517;-25
2022/07/01 08:58:49;;;;;;;10.23;5.50;;;20.40;1.00;;;;;;5075387;28;20108;-25
2022/07/01 09:01:20;;;;;;;12.65;6.18;;;20.40;1.00;;;;;;5075066;28;20052;-25
2022/07/01 09:03:47;;;;;;;8.30;5.95;;;19.90;99.90;;;;;;5075853;28;20522;-25
2022/07/01 09:06:19;;;;;;;8.13;5.20;;;19.70;1.00;;;;;;5075194;28;20379;-25
2022/07/01 09:08:46;;;;;;;11.57;4.23;;;19.30;1.00;;;;;;5074529;28;20063;-25
2022/07/01 09:11:18;;;;;;;10.43;5.35;;;19.50;1.00;;;;;;5076387;28;20061;-25
2022/07/01 09:13:45;;;;;;;10.82;4.90;;;20.10;1.00;;;;;;5075143;28;20059;-25
2022/07/01 09:16:16;;;;;;;6.88;5.03;;;20.40;99.90;;;;;;5074838;28;20123;-25
2022/07/01 09:19:03;;;;;;;8.15;5.60;;;20.10;99.90;;;;;;5074991;28;20040;-25
2022/07/01 09:21:30;;;;;;;10.00;4.68;;;20.20;99.90;;;;;;5074825;28;20040;-25
2022/07/01 09:23:58;;;;;;;10.32;4.68;;;20.10;99.90;;;;;;5075679;28;20041;-25
2022/07/01 09:26:26;;;;;;;6.10;4.13;;;20.20;99.90;;;;;;5075068;28;20056;-25
2022/07/01 09:28:56;;;;;;;6.15;3.58;;;20.50;99.90;;;;;;5074758;28;20124;-25
2022/07/01 09:31:31;;;;;;;12.75;3.45;;;20.10;1.00;;;;;;5073572;28;20131;-25
2022/07/01 09:34:05;;;;;;;7.15;3.03;;;20.10;99.90;;;;;;5074682;28;20048;-25
2022/07/01 09:36:31;;;;;;;5.05;2.22;;;20.40;99.90;;;;;;5075220;28;20119;-25
2022/07/01 09:38:56;;;;;;;6.50;1.33;;;20.80;99.90;;;;;;5075151;28;20049;-25
2022/07/01 09:41:23;;;;;;;7.15;2.17;;;20.60;99.90;;;;;;5075267;28;20048;-25
2022/07/01 09:43:49;;;;;;;5.30;2.20;;;20.30;99.90;;;;;;5074518;28;20056;-25
2022/07/01 09:46:15;;;;;;;4.55;1.60;;;20.20;99.90;;;;;;5074729;28;20052;-25
2022/07/01 09:48:43;;;;;;;4.45;1.60;;;20.30;99.90;;;;;;5073127;28;20394;-25
2022/07/01 09:51:10;;;;;;;4.95;1.58;;;20.20;99.90;;;;;;5074292;28;20052;-25
2022/07/01 09:53:36;;;;;;;3.80;0.90;;;20.10;99.90;;;;;;5073196;28;20146;-25
2022/07/01 09:56:02;;;;;;;7.35;2.13;;;20.60;99.90;;;;;;5074196;28;20044;-26
2022/07/01 09:58:28;;;;;;;7.22;3.25;;;20.70;99.90;;;;;;5074162;28;20052;-25
2022/07/01 10:00:54;;;;;;;4.82;1.60;;;20.80;99.90;;;;;;5074081;28;20131;-25
2022/07/01 10:03:23;;;;;;;5.50;1.52;;;20.60;99.90;;;;;;5074113;28;20123;-25
2022/07/01 10:06:02;;;;;;;4.47;1.55;;;20.50;99.90;;;;;;5074094;28;20084;-26
2022/07/01 10:08:46;;;;;;;4.65;1.38;;;20.70;99.90;;;;;;5074627;28;20482;-25
2022/07/01 10:12:02;;;;;;;6.53;1.55;;;20.70;99.90;;;;;;5075008;28;20062;-26
2022/07/01 10:14:30;;;;;;;6.10;1.35;;;21.00;1.00;;;;;;5072226;28;20049;-26
2022/07/01 10:16:56;;;;;;;7.68;1.60;;;21.40;99.90;;;;;;5073881;28;20044;-26
2022/07/01 10:19:30;;;;;;;2.95;1.60;;;21.60;99.90;;;;;;5074191;28;20051;-26
2022/07/01 10:22:18;;;;;;;4.63;1.40;;;21.70;1.00;;;;;;5073786;28;20094;-26
2022/07/01 10:24:44;;;;;;;4.80;1.42;;;21.80;1.00;;;;;;5073867;28;20048;-26
2022/07/01 10:27:20;;;;;;;3.95;1.10;;;21.80;1.00;;;;;;5073354;28;20114;-26
2022/07/01 10:29:46;;;;;;;5.25;1.38;;;21.30;1.00;;;;;;5074400;28;20097;-26
2022/07/01 10:32:21;;;;;;;5.75;1.70;;;21.60;1.00;;;;;;5074001;28;20037;-26
2022/07/01 10:34:46;;;;;;;6.28;1.95;;;21.60;99.90;;;;;;5073732;28;20044;-26
2022/07/01 10:37:13;;;;;;;4.55;1.45;;;21.40;99.90;;;;;;5073726;28;20462;-26
2022/07/01 10:40:08;;;;;;;5.35;2.20;;;21.00;1.00;;;;;;5072779;28;20394;-26
2022/07/01 10:42:55;;;;;;;7.40;2.53;;;20.40;1.00;;;;;;5068536;28;20048;-26
2022/07/01 10:45:20;;;;;;;19.65;3.35;;;19.90;99.90;;;;;;5073841;28;20067;-22
2022/07/01 10:47:46;;;;;;;12.18;2.10;;;18.60;1.00;;;;;;5073598;28;20470;-22
2022/07/01 10:50:18;;;;;;;6.88;1.83;;;17.20;1.00;;;;;;5074092;28;20048;-20
2022/07/01 10:53:04;;;;;;;7.68;1.65;;;16.20;99.90;;;;;;5073557;28;20087;-20
2022/07/01 10:55:43;;;;;;;8.98;2.13;;;15.60;99.90;;;;;;5073484;28;20053;-20
2022/07/01 10:58:09;;;;;;;6.13;1.70;;;15.50;99.90;;;;;;5073544;28;20040;-20
2022/07/01 11:00:36;;;;;;;5.95;1.10;;;15.70;37.70;;;;;;5073475;28;20045;-20
2022/07/01 11:03:13;;;;;;;6.38;0.95;;;16.00;1.00;;;;;;5073381;28;20094;-20
2022/07/01 11:05:39;;;;;;;3.47;0.70;;;16.00;1.00;;;;;;5072227;28;20040;-20
2022/07/01 11:08:07;;;;;;;4.53;0.85;;;16.00;99.90;;;;;;5073389;28;20522;-20
2022/07/01 11:10:33;;;;;;;4.53;1.15;;;16.10;99.90;;;;;;5073570;28;20115;-20
2022/07/01 11:13:02;;;;;;;2.88;0.68;;;16.20;99.90;;;;;;5073644;28;20051;-20
2022/07/01 11:15:32;;;;;;;3.28;0.73;;;16.40;99.90;;;;;;5073754;28;20359;-20
2022/07/01 11:17:59;;;;;;;4.03;0.65;;;16.60;99.90;;;;;;5072331;28;20483;-21
2022/07/01 11:20:31;;;;;;;1.55;0.50;;;16.70;99.90;;;;;;5073266;28;20048;-21
2022/07/01 11:22:57;;;;;;;2.20;0.68;;;16.80;25.50;;;;;;5073251;28;20036;-21
2022/07/01 11:25:23;;;;;;;3.35;0.80;;;16.80;1.00;;;;;;5072092;28;20083;-21
2022/07/01 11:27:50;;;;;;;2.20;0.45;;;16.90;1.00;;;;;;5073227;28;20076;-21
2022/07/01 11:30:17;;;;;;;2.97;0.85;;;17.00;1.00;;;;;;5073216;28;20477;-21
2022/07/01 11:32:46;;;;;;;2.88;0.77;;;17.20;1.00;;;;;;5073241;28;20044;-22
2022/07/01 11:41:05;;;;;;;4.18;1.00;;;18.40;99.90;;;;;;5077377;28;20090;-22
2022/07/01 11:43:39;;;;;;;2.78;1.02;;;19.60;99.90;;;;;;5077042;28;20379;-22
2022/07/01 11:46:07;;;;;;;3.15;0.90;;;20.20;99.90;;;;;;5076790;28;20041;-23
2022/07/01 11:48:42;;;;;;;3.90;1.08;;;20.90;25.30;;;;;;5077513;28;20044;-23
2022/07/01 11:51:20;;;;;;;2.83;0.80;;;21.10;99.90;;;;;;5075661;28;20048;-23
2022/07/01 11:53:51;;;;;;;2.47;0.95;;;21.50;1.00;;;;;;5076876;28;20048;-23
2022/07/01 11:56:27;;;;;;;6.20;1.67;;;21.70;99.90;;;;;;5077163;28;20055;-24
2022/07/01 11:58:55;;;;;;;2.80;0.88;;;22.00;1.00;;;;;;5076033;28;20145;-24
2022/07/01 12:01:29;;;;;;;6.20;0.95;;;21.50;99.90;;;;;;5076370;28;20040;-24
2022/07/01 12:04:00;;;;;;;5.05;1.50;;;20.60;99.90;;;;;;5075934;28;20048;-24
2022/07/01 12:06:26;;;;;;;5.32;1.58;;;19.70;99.90;;;;;;5076966;28;20044;-24
2022/07/01 12:08:56;;;;;;;4.85;1.50;;;19.40;54.20;;;;;;5075948;28;20159;-24
2022/07/01 12:11:23;;;;;;;4.85;1.30;;;19.40;99.90;;;;;;5076740;28;20053;-24
2022/07/01 12:13:49;;;;;;;3.95;1.90;;;19.00;28.30;;;;;;5077054;28;20398;-24
2022/07/01 12:16:15;;;;;;;7.00;1.85;;;18.90;23.70;;;;;;5074895;28;20436;-24
2022/07/01 12:19:01;;;;;;;7.45;1.40;;;19.20;1.00;;;;;;5076153;28;20131;-24
2022/07/01 12:21:28;;;;;;;6.95;1.38;;;19.60;99.90;;;;;;5076023;28;20124;-24
2022/07/01 12:24:12;;;;;;;4.47;1.17;;;19.60;99.90;;;;;;5076099;28;20409;-24
2022/07/01 12:27:02;;;;;;;4.40;1.17;;;19.80;99.90;;;;;;5076093;28;20052;-24
2022/07/01 12:29:30;;;;;;;3.58;0.63;;;20.40;1.00;;;;;;5076049;28;20059;-25
2022/07/01 12:32:00;;;;;;;3.08;0.77;;;20.60;99.90;;;;;;5076483;28;20175;-24
2022/07/01 12:34:43;;;;;;;4.18;0.90;;;20.00;99.90;;;;;;5075850;28;20482;-24
2022/07/01 12:37:19;;;;;;;2.85;0.45;;;19.80;1.00;;;;;;5074986;28;20397;-25
2022/07/01 12:39:50;;;;;;;6.43;0.95;;;20.30;99.90;;;;;;5075719;28;20422;-25
2022/07/01 12:42:20;;;;;;;3.22;0.55;;;20.50;8.30;;;;;;5074315;28;20043;-25
2022/07/01 12:44:46;;;;;;;3.38;0.60;;;20.50;1.00;;;;;;5075629;28;20057;-24
2022/07/01 12:47:24;;;;;;;3.80;0.75;;;20.60;1.00;;;;;;5076182;28;20040;-24
2022/07/01 12:49:50;;;;;;;4.15;0.65;;;20.30;99.90;;;;;;5057209;28;20059;-24
2022/07/01 12:52:26;;;;;;;3.28;0.80;;;20.40;99.90;;;;;;5074640;28;20048;-25
2022/07/01 12:54:52;;;;;;;4.38;0.45;;;21.00;99.90;;;;;;5075473;28;20371;-25
2022/07/01 12:57:29;;;;;;;4.18;0.80;;;21.40;99.90;;;;;;5075361;28;20098;-25
2022/07/01 12:59:55;;;;;;;1.75;0.38;;;20.90;3.50;;;;;;5076263;28;20063;-25
2022/07/01 13:02:20;;;;;;;3.03;0.60;;;20.20;99.90;;;;;;5075351;28;20454;-25
2022/07/01 13:04:46;;;;;;;3.40;0.63;;;19.90;99.90;;;;;;5075219;28;20367;-25
2022/07/01 13:07:12;;;;;;;3.22;0.82;;;19.80;99.90;;;;;;5075267;28;20106;-25